createdAt,value
2022-12-04T00:01:19.626Z,0.00
2022-12-04T00:03:48.215Z,0.00
2022-12-04T00:06:19.327Z,0.00
2022-12-04T00:08:48.473Z,0.00
2022-12-04T00:11:19.744Z,0.00
2022-12-04T00:13:47.940Z,0.00
2022-12-04T00:16:18.599Z,0.00
2022-12-04T00:18:47.556Z,0.00
2022-12-04T00:21:18.382Z,0.10
2022-12-04T00:23:47.201Z,0.00
2022-12-04T00:26:17.923Z,0.00
2022-12-04T00:28:46.903Z,0.00
2022-12-04T00:31:17.855Z,0.00
2022-12-04T00:33:46.598Z,0.10
2022-12-04T00:36:18.550Z,0.00
2022-12-04T00:38:47.222Z,0.10
2022-12-04T00:41:18.056Z,0.10
2022-12-04T00:43:46.917Z,0.00
2022-12-04T00:46:15.687Z,0.00
2022-12-04T00:48:44.374Z,0.00
2022-12-04T00:51:16.933Z,0.00
2022-12-04T00:53:46.901Z,0.00
2022-12-04T00:56:18.797Z,0.00
2022-12-04T00:58:47.799Z,0.00
2022-12-04T01:01:19.494Z,0.00
2022-12-04T01:03:48.571Z,0.00
2022-12-04T01:06:21.575Z,0.00
2022-12-04T01:08:52.371Z,0.00
2022-12-04T01:11:20.911Z,0.00
2022-12-04T01:13:49.824Z,0.00
2022-12-04T01:16:19.904Z,0.00
2022-12-04T01:18:48.687Z,-0.10
2022-12-04T01:21:17.439Z,0.00
2022-12-04T01:23:46.153Z,0.00
2022-12-04T01:26:15.900Z,-0.10
2022-12-04T01:28:44.928Z,-0.10
2022-12-04T01:31:15.887Z,-0.10
2022-12-04T01:33:45.678Z,-0.10
2022-12-04T01:36:16.327Z,-0.10
2022-12-04T01:38:44.917Z,-0.20
2022-12-04T01:41:16.291Z,-0.20
2022-12-04T01:43:45.127Z,-0.30
2022-12-04T01:46:13.586Z,-0.30
2022-12-04T01:48:45.480Z,-0.30
2022-12-04T01:51:18.737Z,-0.30
2022-12-04T01:53:51.267Z,-0.30
2022-12-04T01:56:23.814Z,-0.40
2022-12-04T01:58:56.589Z,-0.40
2022-12-04T02:01:26.985Z,-0.40
2022-12-04T02:03:55.961Z,-0.40
2022-12-04T02:06:24.085Z,-0.40
2022-12-04T02:08:52.635Z,-0.50
2022-12-04T02:11:32.722Z,-0.50
2022-12-04T02:14:09.804Z,-0.60
2022-12-04T02:16:45.149Z,-0.60
2022-12-04T02:19:32.241Z,-0.60
2022-12-04T02:22:05.276Z,-0.70
2022-12-04T02:24:48.430Z,-0.80
2022-12-04T02:27:33.962Z,-0.80
2022-12-04T02:30:06.759Z,-0.80
2022-12-04T02:32:40.900Z,-0.80
2022-12-04T02:35:15.979Z,-0.80
2022-12-04T02:37:47.568Z,-0.80
2022-12-04T02:40:26.420Z,-0.80
2022-12-04T02:43:02.547Z,-0.70
2022-12-04T02:45:38.317Z,-0.80
2022-12-04T02:48:08.908Z,-0.90
2022-12-04T02:50:41.505Z,-0.90
2022-12-04T02:53:14.923Z,-0.90
2022-12-04T02:55:46.121Z,-0.90
2022-12-04T02:58:18.009Z,-0.90
2022-12-04T03:00:49.792Z,-1.00
2022-12-04T03:03:23.008Z,-1.00
2022-12-04T03:05:58.332Z,-1.00
2022-12-04T03:08:31.255Z,-1.10
2022-12-04T03:11:02.611Z,-1.10
2022-12-04T03:13:37.268Z,-1.10
2022-12-04T03:16:11.406Z,-1.10
2022-12-04T03:18:43.340Z,-1.10
2022-12-04T03:21:15.252Z,-1.10
2022-12-04T03:23:47.518Z,-1.10
2022-12-04T03:26:24.880Z,-1.00
2022-12-04T03:29:00.019Z,-1.00
2022-12-04T03:31:35.065Z,-1.10
2022-12-04T03:34:06.901Z,-1.00
2022-12-04T03:36:39.899Z,-1.10
2022-12-04T03:39:15.910Z,-1.10
2022-12-04T03:41:54.853Z,-1.10
2022-12-04T03:44:28.820Z,-1.20
2022-12-04T03:47:04.566Z,-1.20
2022-12-04T03:49:39.342Z,-1.20
2022-12-04T03:52:15.667Z,-1.30
2022-12-04T03:54:49.114Z,-1.30
2022-12-04T03:57:21.883Z,-1.30
2022-12-04T03:59:56.108Z,-1.30
2022-12-04T04:02:28.497Z,-1.40
2022-12-04T04:05:00.432Z,-1.40
2022-12-04T04:07:36.927Z,-1.50
2022-12-04T04:10:08.911Z,-1.50
2022-12-04T04:12:42.492Z,-1.40
2022-12-04T04:15:32.177Z,-1.50
2022-12-04T04:18:20.842Z,-1.50
2022-12-04T04:21:14.134Z,-1.60
2022-12-04T04:24:04.657Z,-1.60
2022-12-04T04:26:36.600Z,-1.70
2022-12-04T04:29:05.041Z,-1.70
2022-12-04T04:31:42.474Z,-1.80
2022-12-04T04:34:17.422Z,-1.80
2022-12-04T04:36:55.970Z,-1.70
2022-12-04T04:39:33.025Z,-1.70
2022-12-04T04:42:06.555Z,-1.60
2022-12-04T04:44:40.901Z,-1.60
2022-12-04T04:47:14.873Z,-1.50
2022-12-04T04:49:47.329Z,-1.50
2022-12-04T04:52:16.644Z,-1.50
2022-12-04T04:54:45.837Z,-1.50
2022-12-04T04:57:13.937Z,-1.50
2022-12-04T04:59:42.091Z,-1.50
2022-12-04T05:02:11.409Z,-1.50
2022-12-04T05:04:39.589Z,-1.60
2022-12-04T05:07:09.436Z,-1.60
2022-12-04T05:09:41.245Z,-1.70
2022-12-04T05:12:10.519Z,-1.70
2022-12-04T05:14:38.928Z,-1.70
2022-12-04T05:17:12.367Z,-1.70
2022-12-04T05:19:58.589Z,-1.70
2022-12-04T05:22:30.473Z,-1.70
2022-12-04T05:25:00.131Z,-1.80
2022-12-04T05:27:30.061Z,-1.80
2022-12-04T05:29:59.728Z,-1.80
2022-12-04T05:32:30.022Z,-1.80
2022-12-04T05:34:58.840Z,-1.80
2022-12-04T05:37:28.368Z,-1.90
2022-12-04T05:39:57.247Z,-1.90
2022-12-04T05:42:26.397Z,-1.90
2022-12-04T05:44:54.511Z,-1.90
2022-12-04T05:47:22.915Z,-1.90
2022-12-04T05:49:51.214Z,-1.90
2022-12-04T05:52:19.355Z,-1.80
2022-12-04T05:54:49.304Z,-1.80
2022-12-04T05:57:17.829Z,-1.90
2022-12-04T05:59:45.903Z,-1.80
2022-12-04T06:02:14.093Z,-1.90
2022-12-04T06:04:43.872Z,-1.80
2022-12-04T06:07:12.236Z,-1.80
2022-12-04T06:09:40.792Z,-1.80
2022-12-04T06:12:10.339Z,-1.80
2022-12-04T06:14:39.990Z,-1.90
2022-12-04T06:17:08.532Z,-1.90
2022-12-04T06:19:37.029Z,-1.90
2022-12-04T06:22:05.176Z,-1.90
2022-12-04T06:24:33.707Z,-1.90
2022-12-04T06:27:26.821Z,-1.90
2022-12-04T06:29:51.557Z,-1.90
2022-12-04T06:32:22.063Z,-1.90
2022-12-04T06:34:52.765Z,-1.90
2022-12-04T06:37:22.026Z,-2.00
2022-12-04T06:39:50.153Z,-2.00
2022-12-04T06:42:18.624Z,-2.00
2022-12-04T06:44:47.442Z,-2.10
2022-12-04T06:47:16.929Z,-2.10
2022-12-04T06:49:46.175Z,-2.10
2022-12-04T06:52:14.800Z,-2.10
2022-12-04T06:54:43.121Z,-2.10
2022-12-04T06:57:11.475Z,-2.20
2022-12-04T06:59:39.997Z,-2.20
2022-12-04T07:02:08.177Z,-2.20
2022-12-04T07:04:38.176Z,-2.20
2022-12-04T07:07:06.376Z,-2.30
2022-12-04T07:09:34.440Z,-2.40
2022-12-04T07:12:02.716Z,-2.50
2022-12-04T07:14:30.918Z,-2.60
2022-12-04T07:16:59.353Z,-2.70
2022-12-04T07:19:27.562Z,-2.70
2022-12-04T07:21:57.352Z,-2.80
2022-12-04T07:24:25.438Z,-2.70
2022-12-04T07:26:53.772Z,-2.60
2022-12-04T07:29:21.984Z,-2.60
2022-12-04T07:31:50.155Z,-2.60
2022-12-04T07:34:18.397Z,-2.60
2022-12-04T07:36:46.628Z,-2.60
2022-12-04T07:39:16.105Z,-2.50
2022-12-04T07:41:44.188Z,-2.40
2022-12-04T07:44:12.468Z,-2.30
2022-12-04T07:46:40.565Z,-2.40
2022-12-04T07:49:08.676Z,-2.40
2022-12-04T07:51:36.805Z,-2.40
2022-12-04T07:54:04.956Z,-2.30
2022-12-04T07:56:34.865Z,-2.30
2022-12-04T07:59:03.311Z,-2.30
2022-12-04T08:01:31.961Z,-2.30
2022-12-04T08:04:01.638Z,-2.30
2022-12-04T08:06:31.472Z,-2.20
2022-12-04T08:09:02.408Z,-2.30
2022-12-04T08:11:34.762Z,-2.30
2022-12-04T08:14:05.929Z,-2.30
2022-12-04T08:16:34.713Z,-2.30
2022-12-04T08:19:03.349Z,-2.20
2022-12-04T08:21:32.877Z,-2.20
2022-12-04T08:24:01.944Z,-2.20
2022-12-04T08:26:32.192Z,-2.10
2022-12-04T08:29:02.784Z,-2.10
2022-12-04T08:31:32.925Z,-2.10
2022-12-04T08:34:03.313Z,-2.10
2022-12-04T08:36:31.708Z,-2.00
2022-12-04T08:38:59.918Z,-2.00
2022-12-04T08:41:28.610Z,-2.10
2022-12-04T08:43:58.013Z,-1.90
2022-12-04T08:46:28.661Z,-1.80
2022-12-04T08:48:57.991Z,-1.80
2022-12-04T08:51:27.875Z,-1.70
2022-12-04T08:53:57.509Z,-1.70
2022-12-04T08:56:26.636Z,-1.60
2022-12-04T08:58:56.439Z,-1.60
2022-12-04T09:01:26.025Z,-1.50
2022-12-04T09:03:56.249Z,-1.50
2022-12-04T09:06:24.809Z,-1.50
2022-12-04T09:08:55.346Z,-1.50
2022-12-04T09:11:25.145Z,-1.40
2022-12-04T09:13:53.890Z,-1.40
2022-12-04T09:16:24.614Z,-1.30
2022-12-04T09:18:53.841Z,-1.30
2022-12-04T09:21:24.846Z,-1.30
2022-12-04T09:23:53.037Z,-1.30
2022-12-04T09:26:24.363Z,-1.20
2022-12-04T09:28:53.541Z,-1.20
2022-12-04T09:31:23.279Z,-1.20
2022-12-04T09:33:51.788Z,-1.20
2022-12-04T09:36:20.535Z,-1.10
2022-12-04T09:38:51.720Z,-1.10
2022-12-04T09:41:54.614Z,-1.10
2022-12-04T09:44:25.664Z,-1.10
2022-12-04T09:46:58.902Z,-1.10
2022-12-04T09:49:30.290Z,-1.00
2022-12-04T09:52:02.047Z,-1.00
2022-12-04T09:54:38.612Z,-1.00
2022-12-04T09:57:16.763Z,-1.00
2022-12-04T09:59:46.443Z,-1.00
2022-12-04T10:02:32.775Z,-0.90
2022-12-04T10:05:01.159Z,-0.90
2022-12-04T10:07:35.374Z,-0.90
2022-12-04T10:10:09.817Z,-0.90
2022-12-04T10:12:54.900Z,-0.90
2022-12-04T10:15:34.236Z,-0.90
2022-12-04T10:18:19.448Z,-0.80
2022-12-04T10:21:05.689Z,-0.80
2022-12-04T10:23:45.924Z,-0.70
2022-12-04T10:26:19.005Z,-0.70
2022-12-04T10:28:55.229Z,-0.70
2022-12-04T10:31:25.560Z,-0.70
2022-12-04T10:33:57.773Z,-0.60
2022-12-04T10:36:32.516Z,-0.60
2022-12-04T10:39:04.470Z,-0.60
2022-12-04T10:41:41.725Z,-0.50
2022-12-04T10:44:14.845Z,-0.50
2022-12-04T10:46:45.973Z,-0.50
2022-12-04T10:49:19.548Z,-0.40
2022-12-04T10:51:48.270Z,-0.40
2022-12-04T10:54:21.643Z,-0.40
2022-12-04T10:56:56.176Z,-0.40
2022-12-04T10:59:25.359Z,-0.30
2022-12-04T11:02:04.798Z,-0.30
2022-12-04T11:04:36.638Z,-0.30
2022-12-04T11:07:06.644Z,-0.30
2022-12-04T11:09:35.106Z,-0.30
2022-12-04T11:12:10.668Z,-0.30
2022-12-04T11:14:42.765Z,-0.30
2022-12-04T11:17:19.113Z,-0.30
2022-12-04T11:19:47.591Z,-0.20
2022-12-04T11:22:18.814Z,-0.20
2022-12-04T11:24:54.534Z,-0.20
2022-12-04T11:27:28.619Z,-0.20
2022-12-04T11:29:57.866Z,-0.10
2022-12-04T11:32:30.129Z,-0.10
2022-12-04T11:35:02.122Z,-0.10
2022-12-04T11:37:34.706Z,-0.10
2022-12-04T11:40:06.286Z,-0.10
2022-12-04T11:42:35.877Z,-0.10
2022-12-04T11:45:20.247Z,-0.10
2022-12-04T11:47:55.610Z,0.00
2022-12-04T11:50:32.564Z,0.00
2022-12-04T11:53:11.277Z,-0.10
2022-12-04T11:55:50.007Z,-0.10
2022-12-04T11:58:59.210Z,-0.10
2022-12-04T12:01:41.819Z,-0.10
2022-12-04T12:04:48.089Z,-0.10
2022-12-04T12:07:25.169Z,-0.10
2022-12-04T12:10:01.075Z,-0.10
2022-12-04T12:12:40.409Z,-0.10
2022-12-04T12:15:20.673Z,-0.10
2022-12-04T12:18:06.915Z,-0.10
2022-12-04T12:20:39.170Z,-0.10
2022-12-04T12:23:24.869Z,-0.10
2022-12-04T12:26:00.735Z,-0.10
2022-12-04T12:28:46.187Z,-0.20
2022-12-04T12:31:30.933Z,-0.20
2022-12-04T12:34:04.977Z,-0.20
2022-12-04T12:36:42.809Z,-0.20
2022-12-04T12:39:17.051Z,-0.20
2022-12-04T12:41:49.798Z,-0.20
2022-12-04T12:44:22.558Z,-0.20
2022-12-04T12:46:55.948Z,-0.20
2022-12-04T12:49:30.186Z,-0.20
2022-12-04T12:52:02.648Z,-0.20
2022-12-04T12:54:38.807Z,-0.20
2022-12-04T12:57:13.332Z,-0.20
2022-12-04T12:59:47.461Z,-0.20
2022-12-04T13:02:24.766Z,-0.20
2022-12-04T13:04:55.086Z,-0.30
2022-12-04T13:07:30.317Z,-0.30
2022-12-04T13:10:04.859Z,-0.30
2022-12-04T13:12:43.157Z,-0.30
2022-12-04T13:15:16.152Z,-0.30
2022-12-04T13:17:48.044Z,-0.30
2022-12-04T13:20:21.640Z,-0.40
2022-12-04T13:23:05.402Z,-0.40
2022-12-04T13:25:46.752Z,-0.40
2022-12-04T13:28:32.004Z,-0.40
2022-12-04T13:31:11.499Z,-0.50
2022-12-04T13:34:06.030Z,-0.50
2022-12-04T13:37:10.544Z,-0.50
2022-12-04T13:40:14.156Z,-0.50
2022-12-04T13:42:43.492Z,-0.50
2022-12-04T13:45:24.730Z,-0.50
2022-12-04T13:47:58.269Z,-0.50
2022-12-04T13:50:33.991Z,-0.50
2022-12-04T13:53:03.106Z,-0.50
2022-12-04T13:55:33.271Z,-0.50
2022-12-04T13:58:03.135Z,-0.50
2022-12-04T14:00:35.185Z,-0.50
2022-12-04T14:03:20.556Z,-0.40
2022-12-04T14:05:50.778Z,-0.50
2022-12-04T14:08:25.737Z,-0.50
2022-12-04T14:11:03.478Z,-0.50
2022-12-04T14:13:43.388Z,-0.40
2022-12-04T14:16:21.913Z,-0.50
2022-12-04T14:18:52.100Z,-0.50
2022-12-04T14:21:22.844Z,-0.50
2022-12-04T14:23:52.445Z,-0.50
2022-12-04T14:26:49.033Z,-0.40
2022-12-04T14:29:35.443Z,-0.40
2022-12-04T14:32:10.748Z,-0.50
2022-12-04T14:34:39.335Z,-0.50
2022-12-04T14:37:23.353Z,-0.50
2022-12-04T14:39:52.470Z,-0.50
2022-12-04T14:42:25.519Z,-0.50
2022-12-04T14:44:56.793Z,-0.50
2022-12-04T14:47:42.321Z,-0.50
2022-12-04T14:50:29.135Z,-0.50
2022-12-04T14:53:06.972Z,-0.50
2022-12-04T14:55:52.319Z,-0.50
2022-12-04T14:58:31.806Z,-0.50
2022-12-04T15:01:01.708Z,-0.60
2022-12-04T15:03:33.513Z,-0.60
2022-12-04T15:06:07.052Z,-0.60
2022-12-04T15:08:49.655Z,-0.60
2022-12-04T15:11:37.668Z,-0.70
2022-12-04T15:14:12.161Z,-0.70
2022-12-04T15:16:40.992Z,-0.70
2022-12-04T15:19:18.329Z,-0.70
2022-12-04T15:21:46.828Z,-0.70
2022-12-04T15:24:23.688Z,-0.70
2022-12-04T15:26:53.744Z,-0.70
2022-12-04T15:29:27.179Z,-0.70
2022-12-04T15:31:58.038Z,-0.70
2022-12-04T15:34:37.319Z,-0.70
2022-12-04T15:37:09.660Z,-0.70
2022-12-04T15:39:39.737Z,-0.70
2022-12-04T15:42:15.943Z,-0.70
2022-12-04T15:44:53.153Z,-0.70
2022-12-04T15:47:24.060Z,-0.70
2022-12-04T15:49:52.731Z,-0.70
2022-12-04T15:52:23.206Z,-0.70
2022-12-04T15:54:57.361Z,-0.70
2022-12-04T15:57:30.516Z,-0.70
2022-12-04T16:00:01.314Z,-0.80
2022-12-04T16:02:31.868Z,-0.80
2022-12-04T16:05:12.102Z,-0.80
2022-12-04T16:07:50.670Z,-0.80
2022-12-04T16:10:24.996Z,-0.80
2022-12-04T16:12:54.984Z,-0.90
2022-12-04T16:15:23.864Z,-0.90
2022-12-04T16:17:52.269Z,-0.90
2022-12-04T16:20:21.003Z,-0.90
2022-12-04T16:22:54.393Z,-1.00
2022-12-04T16:25:23.945Z,-1.00
2022-12-04T16:27:52.321Z,-1.10
2022-12-04T16:30:20.515Z,-1.10
2022-12-04T16:32:49.004Z,-1.20
2022-12-04T16:35:18.337Z,-1.20
2022-12-04T16:37:46.599Z,-1.20
2022-12-04T16:40:16.243Z,-1.30
2022-12-04T16:42:46.183Z,-1.30
2022-12-04T16:45:24.776Z,-1.30
2022-12-04T16:47:53.549Z,-1.30
2022-12-04T16:50:21.857Z,-1.30
2022-12-04T16:52:50.341Z,-1.30
2022-12-04T16:55:21.322Z,-1.30
2022-12-04T16:57:52.505Z,-1.30
2022-12-04T17:00:21.112Z,-1.30
2022-12-04T17:02:49.300Z,-1.40
2022-12-04T17:05:21.107Z,-1.40
2022-12-04T17:07:49.781Z,-1.40
2022-12-04T17:10:23.433Z,-1.50
2022-12-04T17:12:55.386Z,-1.50
2022-12-04T17:15:24.062Z,-1.50
2022-12-04T17:17:52.244Z,-1.50
2022-12-04T17:20:21.971Z,-1.50
2022-12-04T17:22:50.343Z,-1.50
2022-12-04T17:25:19.328Z,-1.50
2022-12-04T17:27:48.191Z,-1.50
2022-12-04T17:30:17.970Z,-1.40
2022-12-04T17:32:46.571Z,-1.40
2022-12-04T17:35:15.325Z,-1.50
2022-12-04T17:37:43.455Z,-1.40
2022-12-04T17:40:13.067Z,-1.50
2022-12-04T17:42:42.125Z,-1.50
2022-12-04T17:45:12.130Z,-1.50
2022-12-04T17:47:41.597Z,-1.50
2022-12-04T17:50:10.495Z,-1.60
2022-12-04T17:52:38.592Z,-1.50
2022-12-04T17:55:08.974Z,-1.50
2022-12-04T17:57:37.610Z,-1.50
2022-12-04T18:00:07.077Z,-1.50
2022-12-04T18:02:35.169Z,-1.50
2022-12-04T18:05:05.300Z,-1.60
2022-12-04T18:07:33.420Z,-1.60
2022-12-04T18:10:01.615Z,-1.60
2022-12-04T18:12:29.915Z,-1.60
2022-12-04T18:14:58.045Z,-1.50
2022-12-04T18:17:26.196Z,-1.60
2022-12-04T18:19:57.708Z,-1.50
2022-12-04T18:22:29.284Z,-1.60
2022-12-04T18:24:58.543Z,-1.50
2022-12-04T18:27:26.655Z,-1.50
2022-12-04T18:29:54.953Z,-1.60
2022-12-04T18:32:24.211Z,-1.60
2022-12-04T18:34:52.277Z,-1.60
2022-12-04T18:37:20.360Z,-1.60
2022-12-04T18:39:51.207Z,-1.60
2022-12-04T18:42:19.276Z,-1.60
2022-12-04T18:44:48.237Z,-1.60
2022-12-04T18:47:16.398Z,-1.50
2022-12-04T18:49:44.502Z,-1.50
2022-12-04T18:52:12.685Z,-1.50
2022-12-04T18:54:41.212Z,-1.50
2022-12-04T18:57:11.155Z,-1.50
2022-12-04T18:59:39.267Z,-1.50
2022-12-04T19:02:08.982Z,-1.50
2022-12-04T19:04:37.181Z,-1.60
2022-12-04T19:07:05.763Z,-1.60
2022-12-04T19:10:09.559Z,-1.60
2022-12-04T19:12:24.166Z,-1.60
2022-12-04T19:14:52.541Z,-1.60
2022-12-04T19:17:22.512Z,-1.60
2022-12-04T19:19:50.687Z,-1.60
2022-12-04T19:22:18.910Z,-1.60
2022-12-04T19:24:48.147Z,-1.60
2022-12-04T19:27:16.280Z,-1.60
2022-12-04T19:29:46.380Z,-1.60
2022-12-04T19:32:14.758Z,-1.60
2022-12-04T19:34:42.928Z,-1.60
2022-12-04T19:37:11.311Z,-1.60
2022-12-04T19:39:39.610Z,-1.60
2022-12-04T19:42:08.651Z,-1.60
2022-12-04T19:44:48.265Z,-1.60
2022-12-04T19:47:19.565Z,-1.60
2022-12-04T19:49:48.134Z,-1.60
2022-12-04T19:52:16.624Z,-1.60
2022-12-04T19:54:45.119Z,-1.50
2022-12-04T19:57:14.762Z,-1.50
2022-12-04T19:59:46.327Z,-1.60
2022-12-04T20:02:15.759Z,-1.50
2022-12-04T20:04:45.509Z,-1.50
2022-12-04T20:07:13.709Z,-1.50
2022-12-04T20:09:46.003Z,-1.50
2022-12-04T20:12:16.961Z,-1.50
2022-12-04T20:14:45.235Z,-1.40
2022-12-04T20:17:13.344Z,-1.50
2022-12-04T20:19:41.513Z,-1.40
2022-12-04T20:22:11.528Z,-1.50
2022-12-04T20:24:39.717Z,-1.40
2022-12-04T20:27:07.905Z,-1.40
2022-12-04T20:29:36.371Z,-1.40
2022-12-04T20:32:04.503Z,-1.40
2022-12-04T20:34:32.672Z,-1.40
2022-12-04T20:37:01.313Z,-1.30
2022-12-04T20:39:30.825Z,-1.30
2022-12-04T20:42:01.179Z,-1.30
2022-12-04T20:44:30.515Z,-1.30
2022-12-04T20:46:59.798Z,-1.30
2022-12-04T20:49:27.912Z,-1.30
2022-12-04T20:51:56.648Z,-1.30
2022-12-04T20:54:24.756Z,-1.20
2022-12-04T20:56:54.254Z,-1.20
2022-12-04T20:59:24.741Z,-1.10
2022-12-04T21:01:53.554Z,-1.10
2022-12-04T21:04:21.829Z,-1.10
2022-12-04T21:06:50.492Z,-1.10
2022-12-04T21:09:21.580Z,-1.10
2022-12-04T21:11:52.335Z,-1.10
2022-12-04T21:14:41.273Z,-1.10
2022-12-04T21:17:14.213Z,-1.20
2022-12-04T21:19:42.302Z,-1.20
2022-12-04T21:22:10.524Z,-1.20
2022-12-04T21:24:39.357Z,-1.20
2022-12-04T21:27:09.119Z,-1.20
2022-12-04T21:29:40.008Z,-1.20
2022-12-04T21:32:09.485Z,-1.20
2022-12-04T21:34:37.622Z,-1.30
2022-12-04T21:37:05.700Z,-1.30
2022-12-04T21:39:33.992Z,-1.30
2022-12-04T21:42:19.227Z,-1.30
2022-12-04T21:44:51.285Z,-1.30
2022-12-04T21:47:19.549Z,-1.30
2022-12-04T21:49:47.725Z,-1.20
2022-12-04T21:52:16.835Z,-1.20
2022-12-04T21:54:45.088Z,-1.30
2022-12-04T21:57:13.325Z,-1.20
2022-12-04T21:59:41.656Z,-1.20
2022-12-04T22:02:11.541Z,-1.30
2022-12-04T22:04:39.739Z,-1.20
2022-12-04T22:07:08.507Z,-1.20
2022-12-04T22:09:39.198Z,-1.30
2022-12-04T22:12:33.136Z,-1.30
2022-12-04T22:14:56.302Z,-1.20
2022-12-04T22:17:29.479Z,-1.20
2022-12-04T22:19:57.925Z,-1.20
2022-12-04T22:22:26.247Z,-1.20
2022-12-04T22:24:54.363Z,-1.10
2022-12-04T22:27:23.298Z,-1.10
2022-12-04T22:29:51.924Z,-1.00
2022-12-04T22:32:20.175Z,-1.00
2022-12-04T22:34:50.803Z,-1.00
2022-12-04T22:37:19.260Z,-1.00
2022-12-04T22:39:47.339Z,-0.90
2022-12-04T22:42:15.878Z,-0.90
2022-12-04T22:44:44.496Z,-0.90
2022-12-04T22:47:12.659Z,-0.90
2022-12-04T22:49:41.236Z,-0.90
2022-12-04T22:52:10.755Z,-0.90
2022-12-04T22:54:38.856Z,-0.90
2022-12-04T22:57:07.065Z,-1.00
2022-12-04T22:59:35.196Z,-1.00
2022-12-04T23:02:03.397Z,-1.00
2022-12-04T23:04:32.002Z,-1.10
2022-12-04T23:07:00.248Z,-1.10
2022-12-04T23:09:29.914Z,-1.20
2022-12-04T23:11:58.415Z,-1.20
2022-12-04T23:14:28.971Z,-1.20
2022-12-04T23:16:58.010Z,-1.20
2022-12-04T23:19:26.223Z,-1.20
2022-12-04T23:21:57.161Z,-1.10
2022-12-04T23:24:25.890Z,-1.20
2022-12-04T23:26:55.806Z,-1.20
2022-12-04T23:29:51.362Z,-1.10
2022-12-04T23:32:12.512Z,-1.20
2022-12-04T23:34:40.834Z,-1.10
2022-12-04T23:37:08.926Z,-1.20
2022-12-04T23:39:37.232Z,-1.20
2022-12-04T23:42:06.907Z,-1.20
2022-12-04T23:44:35.003Z,-1.20
2022-12-04T23:47:03.467Z,-1.20
2022-12-04T23:49:31.752Z,-1.20
2022-12-04T23:51:59.889Z,-1.20
2022-12-04T23:54:30.297Z,-1.20
2022-12-04T23:56:58.435Z,-1.20
2022-12-04T23:59:28.007Z,-1.20
